sensor_id;sensor_type;location;lat;lon;timestamp;P1;durP1;ratioP1;P2;durP2;ratioP2
4375;SDS011;2202;50.866;12.750;2023-04-25T00:01:39;10.37;;;9.20;;
4375;SDS011;2202;50.866;12.750;2023-04-25T00:04:08;14.97;;;8.73;;
4375;SDS011;2202;50.866;12.750;2023-04-25T00:06:34;10.47;;;8.40;;
4375;SDS011;2202;50.866;12.750;2023-04-25T00:09:02;9.70;;;8.70;;
4375;SDS011;2202;50.866;12.750;2023-04-25T00:11:32;12.47;;;8.33;;
4375;SDS011;2202;50.866;12.750;2023-04-25T00:13:58;9.20;;;8.03;;
4375;SDS011;2202;50.866;12.750;2023-04-25T00:16:26;13.00;;;9.03;;
4375;SDS011;2202;50.866;12.750;2023-04-25T00:18:54;11.60;;;8.60;;
4375;SDS011;2202;50.866;12.750;2023-04-25T00:21:23;10.83;;;8.17;;
4375;SDS011;2202;50.866;12.750;2023-04-25T00:23:50;14.63;;;9.40;;
4375;SDS011;2202;50.866;12.750;2023-04-25T00:26:18;10.70;;;8.40;;
4375;SDS011;2202;50.866;12.750;2023-04-25T00:28:46;12.23;;;7.97;;
4375;SDS011;2202;50.866;12.750;2023-04-25T00:31:12;11.60;;;8.90;;
4375;SDS011;2202;50.866;12.750;2023-04-25T00:33:39;17.40;;;9.27;;
4375;SDS011;2202;50.866;12.750;2023-04-25T00:36:07;14.20;;;8.53;;
4375;SDS011;2202;50.866;12.750;2023-04-25T00:38:35;10.77;;;8.70;;
4375;SDS011;2202;50.866;12.750;2023-04-25T00:41:03;11.57;;;9.43;;
4375;SDS011;2202;50.866;12.750;2023-04-25T00:43:31;16.30;;;8.83;;
4375;SDS011;2202;50.866;12.750;2023-04-25T00:45:59;11.60;;;9.63;;
4375;SDS011;2202;50.866;12.750;2023-04-25T00:48:26;13.57;;;10.03;;
4375;SDS011;2202;50.866;12.750;2023-04-25T00:50:54;10.67;;;9.07;;
4375;SDS011;2202;50.866;12.750;2023-04-25T00:53:23;15.57;;;9.57;;
4375;SDS011;2202;50.866;12.750;2023-04-25T00:55:52;10.70;;;9.10;;
4375;SDS011;2202;50.866;12.750;2023-04-25T00:58:20;12.20;;;9.20;;
4375;SDS011;2202;50.866;12.750;2023-04-25T01:00:48;13.93;;;9.63;;
4375;SDS011;2202;50.866;12.750;2023-04-25T01:03:17;12.10;;;9.80;;
4375;SDS011;2202;50.866;12.750;2023-04-25T01:05:45;12.77;;;11.10;;
4375;SDS011;2202;50.866;12.750;2023-04-25T01:08:13;14.43;;;10.00;;
4375;SDS011;2202;50.866;12.750;2023-04-25T01:10:40;11.80;;;10.40;;
4375;SDS011;2202;50.866;12.750;2023-04-25T01:13:08;17.13;;;11.00;;
4375;SDS011;2202;50.866;12.750;2023-04-25T01:15:36;13.60;;;10.40;;
4375;SDS011;2202;50.866;12.750;2023-04-25T01:18:03;17.70;;;10.90;;
4375;SDS011;2202;50.866;12.750;2023-04-25T01:20:30;14.40;;;10.40;;
4375;SDS011;2202;50.866;12.750;2023-04-25T01:23:00;15.23;;;10.20;;
4375;SDS011;2202;50.866;12.750;2023-04-25T01:25:28;12.50;;;10.67;;
4375;SDS011;2202;50.866;12.750;2023-04-25T01:27:56;12.37;;;10.00;;
4375;SDS011;2202;50.866;12.750;2023-04-25T01:30:23;15.73;;;9.67;;
4375;SDS011;2202;50.866;12.750;2023-04-25T01:32:51;17.33;;;10.57;;
4375;SDS011;2202;50.866;12.750;2023-04-25T01:35:20;11.20;;;10.00;;
4375;SDS011;2202;50.866;12.750;2023-04-25T01:37:48;13.47;;;9.93;;
4375;SDS011;2202;50.866;12.750;2023-04-25T01:40:17;11.83;;;10.03;;
4375;SDS011;2202;50.866;12.750;2023-04-25T01:42:45;13.73;;;9.17;;
4375;SDS011;2202;50.866;12.750;2023-04-25T01:45:11;14.33;;;9.73;;
4375;SDS011;2202;50.866;12.750;2023-04-25T01:47:39;13.43;;;9.80;;
4375;SDS011;2202;50.866;12.750;2023-04-25T01:50:08;10.77;;;9.33;;
4375;SDS011;2202;50.866;12.750;2023-04-25T01:52:36;11.53;;;8.60;;
4375;SDS011;2202;50.866;12.750;2023-04-25T01:55:03;14.20;;;10.13;;
4375;SDS011;2202;50.866;12.750;2023-04-25T01:57:31;14.53;;;11.13;;
4375;SDS011;2202;50.866;12.750;2023-04-25T01:59:59;13.73;;;10.23;;
4375;SDS011;2202;50.866;12.750;2023-04-25T02:02:27;12.67;;;10.07;;
4375;SDS011;2202;50.866;12.750;2023-04-25T02:04:54;16.37;;;10.50;;
4375;SDS011;2202;50.866;12.750;2023-04-25T02:07:21;24.57;;;10.30;;
4375;SDS011;2202;50.866;12.750;2023-04-25T02:09:48;13.17;;;9.57;;
4375;SDS011;2202;50.866;12.750;2023-04-25T02:12:15;11.57;;;8.97;;
4375;SDS011;2202;50.866;12.750;2023-04-25T02:14:43;11.90;;;9.73;;
4375;SDS011;2202;50.866;12.750;2023-04-25T02:17:10;12.90;;;10.30;;
4375;SDS011;2202;50.866;12.750;2023-04-25T02:19:38;14.03;;;8.90;;
4375;SDS011;2202;50.866;12.750;2023-04-25T02:22:05;15.37;;;10.07;;
4375;SDS011;2202;50.866;12.750;2023-04-25T02:24:32;12.87;;;9.20;;
4375;SDS011;2202;50.866;12.750;2023-04-25T02:26:59;12.87;;;10.10;;
4375;SDS011;2202;50.866;12.750;2023-04-25T02:29:26;14.10;;;10.00;;
4375;SDS011;2202;50.866;12.750;2023-04-25T02:31:54;14.10;;;10.10;;
4375;SDS011;2202;50.866;12.750;2023-04-25T02:34:21;15.80;;;11.13;;
4375;SDS011;2202;50.866;12.750;2023-04-25T02:36:48;14.53;;;10.40;;
4375;SDS011;2202;50.866;12.750;2023-04-25T02:39:15;12.13;;;9.13;;
4375;SDS011;2202;50.866;12.750;2023-04-25T02:41:43;13.13;;;9.70;;
4375;SDS011;2202;50.866;12.750;2023-04-25T02:44:10;13.03;;;9.30;;
4375;SDS011;2202;50.866;12.750;2023-04-25T02:46:37;11.30;;;9.53;;
4375;SDS011;2202;50.866;12.750;2023-04-25T02:49:05;12.53;;;9.47;;
4375;SDS011;2202;50.866;12.750;2023-04-25T02:51:32;12.23;;;9.40;;
4375;SDS011;2202;50.866;12.750;2023-04-25T02:53:59;16.00;;;10.07;;
4375;SDS011;2202;50.866;12.750;2023-04-25T02:56:26;16.03;;;10.30;;
4375;SDS011;2202;50.866;12.750;2023-04-25T02:58:53;13.53;;;12.03;;
4375;SDS011;2202;50.866;12.750;2023-04-25T03:01:20;12.63;;;9.47;;
4375;SDS011;2202;50.866;12.750;2023-04-25T03:03:46;12.17;;;8.87;;
4375;SDS011;2202;50.866;12.750;2023-04-25T03:06:15;10.37;;;9.23;;
4375;SDS011;2202;50.866;12.750;2023-04-25T03:08:41;13.63;;;10.33;;
4375;SDS011;2202;50.866;12.750;2023-04-25T03:11:08;13.63;;;9.87;;
4375;SDS011;2202;50.866;12.750;2023-04-25T03:13:35;13.63;;;10.13;;
4375;SDS011;2202;50.866;12.750;2023-04-25T03:16:02;13.00;;;9.23;;
4375;SDS011;2202;50.866;12.750;2023-04-25T03:18:29;15.73;;;9.80;;
4375;SDS011;2202;50.866;12.750;2023-04-25T03:20:56;14.33;;;9.93;;
4375;SDS011;2202;50.866;12.750;2023-04-25T03:23:24;11.63;;;9.90;;
4375;SDS011;2202;50.866;12.750;2023-04-25T03:25:51;16.00;;;10.17;;
4375;SDS011;2202;50.866;12.750;2023-04-25T03:28:18;14.97;;;10.43;;
4375;SDS011;2202;50.866;12.750;2023-04-25T03:30:45;14.40;;;11.00;;
4375;SDS011;2202;50.866;12.750;2023-04-25T03:33:11;13.50;;;10.07;;
4375;SDS011;2202;50.866;12.750;2023-04-25T03:35:38;13.23;;;9.40;;
4375;SDS011;2202;50.866;12.750;2023-04-25T03:38:05;15.40;;;10.77;;
4375;SDS011;2202;50.866;12.750;2023-04-25T03:40:34;14.37;;;10.77;;
4375;SDS011;2202;50.866;12.750;2023-04-25T03:43:01;13.70;;;10.30;;
4375;SDS011;2202;50.866;12.750;2023-04-25T03:45:28;13.70;;;11.07;;
4375;SDS011;2202;50.866;12.750;2023-04-25T03:47:55;15.63;;;11.47;;
4375;SDS011;2202;50.866;12.750;2023-04-25T03:50:21;16.30;;;10.73;;
4375;SDS011;2202;50.866;12.750;2023-04-25T03:52:48;12.17;;;10.60;;
4375;SDS011;2202;50.866;12.750;2023-04-25T03:55:15;15.00;;;10.53;;
4375;SDS011;2202;50.866;12.750;2023-04-25T03:57:44;13.40;;;10.40;;
4375;SDS011;2202;50.866;12.750;2023-04-25T04:00:11;12.00;;;9.80;;
4375;SDS011;2202;50.866;12.750;2023-04-25T04:02:39;16.97;;;9.83;;
4375;SDS011;2202;50.866;12.750;2023-04-25T04:05:06;13.63;;;10.43;;
4375;SDS011;2202;50.866;12.750;2023-04-25T04:07:33;15.47;;;10.80;;
4375;SDS011;2202;50.866;12.750;2023-04-25T04:10:04;12.57;;;10.70;;
4375;SDS011;2202;50.866;12.750;2023-04-25T04:12:32;14.10;;;10.30;;
4375;SDS011;2202;50.866;12.750;2023-04-25T04:15:00;15.13;;;10.37;;
4375;SDS011;2202;50.866;12.750;2023-04-25T04:17:28;16.90;;;9.10;;
4375;SDS011;2202;50.866;12.750;2023-04-25T04:19:55;13.57;;;10.27;;
4375;SDS011;2202;50.866;12.750;2023-04-25T04:22:22;14.50;;;10.80;;
4375;SDS011;2202;50.866;12.750;2023-04-25T04:24:49;15.50;;;10.53;;
4375;SDS011;2202;50.866;12.750;2023-04-25T04:27:17;10.47;;;9.33;;
4375;SDS011;2202;50.866;12.750;2023-04-25T04:29:44;12.43;;;8.90;;
4375;SDS011;2202;50.866;12.750;2023-04-25T04:32:13;16.27;;;10.10;;
4375;SDS011;2202;50.866;12.750;2023-04-25T04:34:40;12.37;;;10.67;;
4375;SDS011;2202;50.866;12.750;2023-04-25T04:37:07;13.23;;;9.97;;
4375;SDS011;2202;50.866;12.750;2023-04-25T04:39:35;12.17;;;8.87;;
4375;SDS011;2202;50.866;12.750;2023-04-25T04:42:02;14.37;;;10.93;;
4375;SDS011;2202;50.866;12.750;2023-04-25T04:44:30;15.30;;;10.23;;
4375;SDS011;2202;50.866;12.750;2023-04-25T04:46:59;14.63;;;11.03;;
4375;SDS011;2202;50.866;12.750;2023-04-25T04:49:28;12.93;;;10.50;;
4375;SDS011;2202;50.866;12.750;2023-04-25T04:51:55;11.70;;;10.17;;
4375;SDS011;2202;50.866;12.750;2023-04-25T04:54:22;11.43;;;10.23;;
4375;SDS011;2202;50.866;12.750;2023-04-25T04:56:48;13.17;;;10.00;;
4375;SDS011;2202;50.866;12.750;2023-04-25T04:59:17;10.67;;;9.47;;
4375;SDS011;2202;50.866;12.750;2023-04-25T05:01:44;12.37;;;10.20;;
4375;SDS011;2202;50.866;12.750;2023-04-25T05:04:11;13.70;;;11.03;;
4375;SDS011;2202;50.866;12.750;2023-04-25T05:06:40;14.60;;;11.90;;
4375;SDS011;2202;50.866;12.750;2023-04-25T05:09:06;13.57;;;10.23;;
4375;SDS011;2202;50.866;12.750;2023-04-25T05:11:33;12.17;;;10.43;;
4375;SDS011;2202;50.866;12.750;2023-04-25T05:14:00;11.03;;;8.80;;
4375;SDS011;2202;50.866;12.750;2023-04-25T05:16:27;16.83;;;10.20;;
4375;SDS011;2202;50.866;12.750;2023-04-25T05:18:54;11.30;;;9.07;;
4375;SDS011;2202;50.866;12.750;2023-04-25T05:21:21;10.53;;;8.60;;
4375;SDS011;2202;50.866;12.750;2023-04-25T05:23:49;14.27;;;10.00;;
4375;SDS011;2202;50.866;12.750;2023-04-25T05:26:16;10.43;;;9.20;;
4375;SDS011;2202;50.866;12.750;2023-04-25T05:28:43;11.70;;;8.87;;
4375;SDS011;2202;50.866;12.750;2023-04-25T05:31:10;10.10;;;8.20;;
4375;SDS011;2202;50.866;12.750;2023-04-25T05:33:37;17.03;;;11.07;;
4375;SDS011;2202;50.866;12.750;2023-04-25T05:36:04;13.97;;;10.90;;
4375;SDS011;2202;50.866;12.750;2023-04-25T05:38:32;10.57;;;9.47;;
4375;SDS011;2202;50.866;12.750;2023-04-25T05:41:00;10.37;;;9.00;;
4375;SDS011;2202;50.866;12.750;2023-04-25T05:43:27;17.77;;;9.83;;
4375;SDS011;2202;50.866;12.750;2023-04-25T05:45:54;10.83;;;8.90;;
4375;SDS011;2202;50.866;12.750;2023-04-25T05:48:21;13.87;;;10.03;;
4375;SDS011;2202;50.866;12.750;2023-04-25T05:50:48;14.50;;;10.37;;
4375;SDS011;2202;50.866;12.750;2023-04-25T05:53:16;11.57;;;10.30;;
4375;SDS011;2202;50.866;12.750;2023-04-25T05:55:43;12.80;;;9.77;;
4375;SDS011;2202;50.866;12.750;2023-04-25T05:58:11;17.00;;;11.23;;
4375;SDS011;2202;50.866;12.750;2023-04-25T06:00:38;14.53;;;10.53;;
4375;SDS011;2202;50.866;12.750;2023-04-25T06:03:06;12.43;;;9.30;;
4375;SDS011;2202;50.866;12.750;2023-04-25T06:05:34;11.53;;;9.23;;
4375;SDS011;2202;50.866;12.750;2023-04-25T06:08:01;12.73;;;11.17;;
4375;SDS011;2202;50.866;12.750;2023-04-25T06:10:28;13.30;;;9.00;;
4375;SDS011;2202;50.866;12.750;2023-04-25T06:12:55;11.50;;;8.80;;
4375;SDS011;2202;50.866;12.750;2023-04-25T06:15:23;10.23;;;7.63;;
4375;SDS011;2202;50.866;12.750;2023-04-25T06:17:50;15.70;;;7.57;;
4375;SDS011;2202;50.866;12.750;2023-04-25T06:20:17;15.10;;;9.57;;
4375;SDS011;2202;50.866;12.750;2023-04-25T06:22:48;14.73;;;8.53;;
4375;SDS011;2202;50.866;12.750;2023-04-25T06:25:15;13.17;;;8.00;;
4375;SDS011;2202;50.866;12.750;2023-04-25T06:27:42;14.53;;;9.23;;
4375;SDS011;2202;50.866;12.750;2023-04-25T06:30:09;13.53;;;8.60;;
4375;SDS011;2202;50.866;12.750;2023-04-25T06:32:38;9.47;;;8.10;;
4375;SDS011;2202;50.866;12.750;2023-04-25T06:35:06;10.73;;;8.20;;
4375;SDS011;2202;50.866;12.750;2023-04-25T06:37:33;11.13;;;8.23;;
4375;SDS011;2202;50.866;12.750;2023-04-25T06:40:00;11.10;;;9.63;;
4375;SDS011;2202;50.866;12.750;2023-04-25T06:42:27;10.53;;;7.57;;
4375;SDS011;2202;50.866;12.750;2023-04-25T06:44:54;11.97;;;8.30;;
4375;SDS011;2202;50.866;12.750;2023-04-25T06:47:22;14.47;;;8.10;;
4375;SDS011;2202;50.866;12.750;2023-04-25T06:49:50;11.07;;;7.23;;
4375;SDS011;2202;50.866;12.750;2023-04-25T06:52:17;11.57;;;8.37;;
4375;SDS011;2202;50.866;12.750;2023-04-25T06:54:44;8.73;;;7.73;;
4375;SDS011;2202;50.866;12.750;2023-04-25T06:57:11;7.40;;;6.70;;
4375;SDS011;2202;50.866;12.750;2023-04-25T06:59:38;11.43;;;7.57;;
4375;SDS011;2202;50.866;12.750;2023-04-25T07:02:05;8.93;;;6.90;;
4375;SDS011;2202;50.866;12.750;2023-04-25T07:04:32;8.60;;;7.30;;
4375;SDS011;2202;50.866;12.750;2023-04-25T07:07:00;9.83;;;7.47;;
4375;SDS011;2202;50.866;12.750;2023-04-25T07:09:28;7.67;;;6.83;;
4375;SDS011;2202;50.866;12.750;2023-04-25T07:11:58;9.87;;;7.07;;
4375;SDS011;2202;50.866;12.750;2023-04-25T07:14:26;11.77;;;8.07;;
4375;SDS011;2202;50.866;12.750;2023-04-25T07:16:53;12.50;;;7.60;;
4375;SDS011;2202;50.866;12.750;2023-04-25T07:19:21;13.27;;;7.50;;
4375;SDS011;2202;50.866;12.750;2023-04-25T07:21:49;8.77;;;7.93;;
4375;SDS011;2202;50.866;12.750;2023-04-25T07:24:17;12.97;;;9.23;;
4375;SDS011;2202;50.866;12.750;2023-04-25T07:26:44;11.80;;;9.47;;
4375;SDS011;2202;50.866;12.750;2023-04-25T07:29:11;11.80;;;8.87;;
4375;SDS011;2202;50.866;12.750;2023-04-25T07:31:38;11.03;;;8.20;;
4375;SDS011;2202;50.866;12.750;2023-04-25T07:34:05;10.40;;;8.63;;
4375;SDS011;2202;50.866;12.750;2023-04-25T07:36:32;14.00;;;9.33;;
4375;SDS011;2202;50.866;12.750;2023-04-25T07:38:59;14.07;;;8.60;;
4375;SDS011;2202;50.866;12.750;2023-04-25T07:41:27;10.83;;;9.07;;
4375;SDS011;2202;50.866;12.750;2023-04-25T07:43:54;9.53;;;8.30;;
4375;SDS011;2202;50.866;12.750;2023-04-25T07:46:20;12.03;;;9.73;;
4375;SDS011;2202;50.866;12.750;2023-04-25T07:48:47;16.90;;;10.50;;
4375;SDS011;2202;50.866;12.750;2023-04-25T07:51:14;15.63;;;8.73;;
4375;SDS011;2202;50.866;12.750;2023-04-25T07:53:41;10.57;;;8.67;;
4375;SDS011;2202;50.866;12.750;2023-04-25T07:56:08;11.70;;;7.90;;
4375;SDS011;2202;50.866;12.750;2023-04-25T07:58:37;10.60;;;8.57;;
4375;SDS011;2202;50.866;12.750;2023-04-25T08:01:03;13.77;;;9.07;;
4375;SDS011;2202;50.866;12.750;2023-04-25T08:03:30;18.20;;;8.63;;
4375;SDS011;2202;50.866;12.750;2023-04-25T08:05:57;9.43;;;8.43;;
4375;SDS011;2202;50.866;12.750;2023-04-25T08:08:24;15.00;;;7.90;;
4375;SDS011;2202;50.866;12.750;2023-04-25T08:10:51;11.40;;;8.67;;
4375;SDS011;2202;50.866;12.750;2023-04-25T08:13:18;14.17;;;8.70;;
4375;SDS011;2202;50.866;12.750;2023-04-25T08:15:46;14.60;;;8.33;;
4375;SDS011;2202;50.866;12.750;2023-04-25T08:18:13;14.77;;;10.77;;
4375;SDS011;2202;50.866;12.750;2023-04-25T08:20:40;13.70;;;9.40;;
4375;SDS011;2202;50.866;12.750;2023-04-25T08:23:07;11.50;;;8.47;;
4375;SDS011;2202;50.866;12.750;2023-04-25T08:25:35;11.10;;;8.70;;
4375;SDS011;2202;50.866;12.750;2023-04-25T08:28:02;9.97;;;7.57;;
4375;SDS011;2202;50.866;12.750;2023-04-25T08:30:30;13.93;;;8.53;;
4375;SDS011;2202;50.866;12.750;2023-04-25T08:32:58;10.87;;;8.50;;
4375;SDS011;2202;50.866;12.750;2023-04-25T08:35:25;11.33;;;8.87;;
4375;SDS011;2202;50.866;12.750;2023-04-25T08:37:52;9.53;;;7.37;;
4375;SDS011;2202;50.866;12.750;2023-04-25T08:40:18;14.30;;;8.80;;
4375;SDS011;2202;50.866;12.750;2023-04-25T08:42:51;7.97;;;6.70;;
4375;SDS011;2202;50.866;12.750;2023-04-25T08:45:19;8.43;;;7.53;;
4375;SDS011;2202;50.866;12.750;2023-04-25T08:47:47;9.10;;;7.80;;
4375;SDS011;2202;50.866;12.750;2023-04-25T08:50:19;9.53;;;7.60;;
4375;SDS011;2202;50.866;12.750;2023-04-25T08:52:47;7.87;;;7.10;;
4375;SDS011;2202;50.866;12.750;2023-04-25T08:55:17;7.53;;;5.80;;
4375;SDS011;2202;50.866;12.750;2023-04-25T08:57:45;7.70;;;6.83;;
4375;SDS011;2202;50.866;12.750;2023-04-25T09:00:13;8.10;;;6.93;;
4375;SDS011;2202;50.866;12.750;2023-04-25T09:02:43;9.03;;;7.10;;
4375;SDS011;2202;50.866;12.750;2023-04-25T09:05:10;10.33;;;7.23;;
4375;SDS011;2202;50.866;12.750;2023-04-25T09:07:40;11.53;;;6.70;;
4375;SDS011;2202;50.866;12.750;2023-04-25T09:10:07;9.77;;;7.03;;
4375;SDS011;2202;50.866;12.750;2023-04-25T09:12:35;11.40;;;9.10;;
4375;SDS011;2202;50.866;12.750;2023-04-25T09:15:03;15.07;;;8.20;;
4375;SDS011;2202;50.866;12.750;2023-04-25T09:17:31;15.20;;;10.47;;
4375;SDS011;2202;50.866;12.750;2023-04-25T09:20:05;10.17;;;8.70;;
4375;SDS011;2202;50.866;12.750;2023-04-25T09:22:33;11.80;;;7.97;;
4375;SDS011;2202;50.866;12.750;2023-04-25T09:25:03;10.60;;;9.00;;
4375;SDS011;2202;50.866;12.750;2023-04-25T09:27:34;10.20;;;8.43;;
4375;SDS011;2202;50.866;12.750;2023-04-25T09:30:01;12.00;;;9.77;;
4375;SDS011;2202;50.866;12.750;2023-04-25T09:32:28;13.90;;;9.40;;
4375;SDS011;2202;50.866;12.750;2023-04-25T09:34:56;15.20;;;10.10;;
4375;SDS011;2202;50.866;12.750;2023-04-25T09:37:23;14.67;;;10.27;;
4375;SDS011;2202;50.866;12.750;2023-04-25T09:39:52;14.33;;;11.97;;
4375;SDS011;2202;50.866;12.750;2023-04-25T09:42:22;25.67;;;17.67;;
4375;SDS011;2202;50.866;12.750;2023-04-25T09:44:51;17.00;;;13.80;;
4375;SDS011;2202;50.866;12.750;2023-04-25T09:47:19;19.23;;;16.27;;
4375;SDS011;2202;50.866;12.750;2023-04-25T09:49:48;14.80;;;9.20;;
4375;SDS011;2202;50.866;12.750;2023-04-25T09:52:16;19.43;;;12.80;;
4375;SDS011;2202;50.866;12.750;2023-04-25T09:54:44;14.53;;;9.03;;
4375;SDS011;2202;50.866;12.750;2023-04-25T09:57:12;22.03;;;15.90;;
4375;SDS011;2202;50.866;12.750;2023-04-25T09:59:44;12.40;;;11.10;;
4375;SDS011;2202;50.866;12.750;2023-04-25T10:02:12;13.40;;;10.43;;
4375;SDS011;2202;50.866;12.750;2023-04-25T10:04:41;10.27;;;8.43;;
4375;SDS011;2202;50.866;12.750;2023-04-25T10:07:11;23.50;;;15.63;;
4375;SDS011;2202;50.866;12.750;2023-04-25T10:09:38;12.70;;;9.50;;
4375;SDS011;2202;50.866;12.750;2023-04-25T10:12:06;13.70;;;10.20;;
4375;SDS011;2202;50.866;12.750;2023-04-25T10:14:33;12.50;;;11.20;;
4375;SDS011;2202;50.866;12.750;2023-04-25T10:17:02;27.47;;;22.07;;
4375;SDS011;2202;50.866;12.750;2023-04-25T10:19:29;21.97;;;18.63;;
4375;SDS011;2202;50.866;12.750;2023-04-25T10:22:00;18.60;;;14.33;;
4375;SDS011;2202;50.866;12.750;2023-04-25T10:24:34;16.97;;;13.70;;
4375;SDS011;2202;50.866;12.750;2023-04-25T10:27:02;26.47;;;20.00;;
4375;SDS011;2202;50.866;12.750;2023-04-25T10:29:30;26.50;;;21.67;;
4375;SDS011;2202;50.866;12.750;2023-04-25T10:31:57;24.07;;;20.33;;
4375;SDS011;2202;50.866;12.750;2023-04-25T10:34:37;25.40;;;17.70;;
4375;SDS011;2202;50.866;12.750;2023-04-25T10:37:07;13.13;;;9.20;;
4375;SDS011;2202;50.866;12.750;2023-04-25T10:39:35;17.63;;;11.93;;
4375;SDS011;2202;50.866;12.750;2023-04-25T10:42:05;18.73;;;13.83;;
4375;SDS011;2202;50.866;12.750;2023-04-25T10:44:33;22.90;;;14.90;;
4375;SDS011;2202;50.866;12.750;2023-04-25T10:47:01;16.40;;;10.77;;
4375;SDS011;2202;50.866;12.750;2023-04-25T10:49:32;17.97;;;13.30;;
4375;SDS011;2202;50.866;12.750;2023-04-25T10:52:12;22.80;;;14.13;;
4375;SDS011;2202;50.866;12.750;2023-04-25T10:54:41;26.37;;;19.60;;
4375;SDS011;2202;50.866;12.750;2023-04-25T11:00:10;27.33;;;15.83;;
4375;SDS011;2202;50.866;12.750;2023-04-25T11:02:41;22.80;;;16.37;;
4375;SDS011;2202;50.866;12.750;2023-04-25T11:05:22;17.43;;;13.33;;
4375;SDS011;2202;50.866;12.750;2023-04-25T11:07:54;15.13;;;11.30;;
4375;SDS011;2202;50.866;12.750;2023-04-25T11:10:24;23.20;;;17.27;;
4375;SDS011;2202;50.866;12.750;2023-04-25T11:12:52;38.47;;;27.90;;
4375;SDS011;2202;50.866;12.750;2023-04-25T11:15:18;26.40;;;19.60;;
4375;SDS011;2202;50.866;12.750;2023-04-25T11:17:45;17.80;;;13.17;;
4375;SDS011;2202;50.866;12.750;2023-04-25T11:20:12;20.30;;;12.93;;
4375;SDS011;2202;50.866;12.750;2023-04-25T11:22:42;18.53;;;14.57;;
4375;SDS011;2202;50.866;12.750;2023-04-25T11:25:11;35.83;;;23.27;;
4375;SDS011;2202;50.866;12.750;2023-04-25T11:27:49;19.77;;;13.40;;
4375;SDS011;2202;50.866;12.750;2023-04-25T11:30:16;14.07;;;8.90;;
4375;SDS011;2202;50.866;12.750;2023-04-25T11:32:44;13.23;;;8.77;;
4375;SDS011;2202;50.866;12.750;2023-04-25T11:35:11;17.20;;;9.70;;
4375;SDS011;2202;50.866;12.750;2023-04-25T11:37:39;12.43;;;8.90;;
4375;SDS011;2202;50.866;12.750;2023-04-25T11:40:08;15.20;;;10.77;;
4375;SDS011;2202;50.866;12.750;2023-04-25T11:42:36;16.57;;;10.17;;
4375;SDS011;2202;50.866;12.750;2023-04-25T11:45:04;15.37;;;9.43;;
4375;SDS011;2202;50.866;12.750;2023-04-25T11:47:33;14.23;;;9.70;;
4375;SDS011;2202;50.866;12.750;2023-04-25T11:50:00;16.83;;;9.00;;
4375;SDS011;2202;50.866;12.750;2023-04-25T11:52:38;12.23;;;8.50;;
4375;SDS011;2202;50.866;12.750;2023-04-25T11:55:08;19.43;;;13.20;;
4375;SDS011;2202;50.866;12.750;2023-04-25T11:57:37;15.20;;;8.80;;
4375;SDS011;2202;50.866;12.750;2023-04-25T12:00:05;14.90;;;8.63;;
4375;SDS011;2202;50.866;12.750;2023-04-25T12:02:41;20.00;;;10.80;;
4375;SDS011;2202;50.866;12.750;2023-04-25T12:05:10;13.23;;;8.47;;
4375;SDS011;2202;50.866;12.750;2023-04-25T12:07:38;12.07;;;8.70;;
4375;SDS011;2202;50.866;12.750;2023-04-25T12:10:08;12.50;;;8.60;;
4375;SDS011;2202;50.866;12.750;2023-04-25T12:12:37;18.33;;;9.40;;
4375;SDS011;2202;50.866;12.750;2023-04-25T12:15:08;14.33;;;9.40;;
4375;SDS011;2202;50.866;12.750;2023-04-25T12:17:40;14.20;;;8.40;;
4375;SDS011;2202;50.866;12.750;2023-04-25T12:20:08;18.23;;;8.03;;
4375;SDS011;2202;50.866;12.750;2023-04-25T12:22:36;13.97;;;8.50;;
4375;SDS011;2202;50.866;12.750;2023-04-25T12:25:03;14.33;;;7.77;;
4375;SDS011;2202;50.866;12.750;2023-04-25T12:27:32;18.00;;;8.20;;
4375;SDS011;2202;50.866;12.750;2023-04-25T12:29:59;14.07;;;8.57;;
4375;SDS011;2202;50.866;12.750;2023-04-25T12:32:26;12.93;;;8.27;;
4375;SDS011;2202;50.866;12.750;2023-04-25T12:34:53;17.93;;;7.87;;
4375;SDS011;2202;50.866;12.750;2023-04-25T12:37:20;11.67;;;7.17;;
4375;SDS011;2202;50.866;12.750;2023-04-25T12:39:47;11.07;;;7.90;;
4375;SDS011;2202;50.866;12.750;2023-04-25T12:42:14;14.80;;;7.73;;
4375;SDS011;2202;50.866;12.750;2023-04-25T12:44:42;11.00;;;8.07;;
4375;SDS011;2202;50.866;12.750;2023-04-25T12:47:09;12.10;;;7.77;;
4375;SDS011;2202;50.866;12.750;2023-04-25T12:49:36;9.20;;;8.00;;
4375;SDS011;2202;50.866;12.750;2023-04-25T12:52:03;11.07;;;7.60;;
4375;SDS011;2202;50.866;12.750;2023-04-25T12:54:30;20.03;;;8.30;;
4375;SDS011;2202;50.866;12.750;2023-04-25T12:56:57;12.57;;;6.97;;
4375;SDS011;2202;50.866;12.750;2023-04-25T12:59:24;8.97;;;6.10;;
4375;SDS011;2202;50.866;12.750;2023-04-25T13:01:52;8.63;;;6.00;;
4375;SDS011;2202;50.866;12.750;2023-04-25T13:04:19;8.00;;;7.07;;
4375;SDS011;2202;50.866;12.750;2023-04-25T13:06:46;8.37;;;6.23;;
4375;SDS011;2202;50.866;12.750;2023-04-25T13:09:13;9.87;;;6.17;;
4375;SDS011;2202;50.866;12.750;2023-04-25T13:11:40;7.10;;;6.23;;
4375;SDS011;2202;50.866;12.750;2023-04-25T13:14:07;9.13;;;5.90;;
4375;SDS011;2202;50.866;12.750;2023-04-25T13:16:34;9.60;;;5.60;;
4375;SDS011;2202;50.866;12.750;2023-04-25T13:19:02;11.63;;;6.70;;
4375;SDS011;2202;50.866;12.750;2023-04-25T13:21:30;9.93;;;6.33;;
4375;SDS011;2202;50.866;12.750;2023-04-25T13:23:58;5.27;;;4.77;;
4375;SDS011;2202;50.866;12.750;2023-04-25T13:26:25;8.53;;;5.73;;
4375;SDS011;2202;50.866;12.750;2023-04-25T13:28:52;10.23;;;5.73;;
4375;SDS011;2202;50.866;12.750;2023-04-25T13:31:19;12.07;;;7.80;;
4375;SDS011;2202;50.866;12.750;2023-04-25T13:33:46;8.47;;;5.33;;
4375;SDS011;2202;50.866;12.750;2023-04-25T13:36:14;9.73;;;6.83;;
4375;SDS011;2202;50.866;12.750;2023-04-25T13:38:41;8.90;;;6.03;;
4375;SDS011;2202;50.866;12.750;2023-04-25T13:41:09;9.83;;;6.50;;
4375;SDS011;2202;50.866;12.750;2023-04-25T13:43:41;11.73;;;6.00;;
4375;SDS011;2202;50.866;12.750;2023-04-25T13:46:07;9.60;;;6.33;;
4375;SDS011;2202;50.866;12.750;2023-04-25T13:48:34;15.10;;;6.63;;
4375;SDS011;2202;50.866;12.750;2023-04-25T13:51:01;8.43;;;6.37;;
4375;SDS011;2202;50.866;12.750;2023-04-25T13:53:30;10.93;;;7.00;;
4375;SDS011;2202;50.866;12.750;2023-04-25T13:55:57;13.70;;;7.30;;
4375;SDS011;2202;50.866;12.750;2023-04-25T13:58:24;11.87;;;7.83;;
4375;SDS011;2202;50.866;12.750;2023-04-25T14:00:50;12.23;;;7.90;;
4375;SDS011;2202;50.866;12.750;2023-04-25T14:03:18;9.77;;;7.30;;
4375;SDS011;2202;50.866;12.750;2023-04-25T14:05:45;8.33;;;7.57;;
4375;SDS011;2202;50.866;12.750;2023-04-25T14:08:12;11.43;;;6.80;;
4375;SDS011;2202;50.866;12.750;2023-04-25T14:10:41;6.63;;;5.83;;
4375;SDS011;2202;50.866;12.750;2023-04-25T14:13:08;10.47;;;7.53;;
4375;SDS011;2202;50.866;12.750;2023-04-25T14:15:35;14.40;;;8.50;;
4375;SDS011;2202;50.866;12.750;2023-04-25T14:18:02;11.07;;;8.23;;
4375;SDS011;2202;50.866;12.750;2023-04-25T14:20:29;15.73;;;9.03;;
4375;SDS011;2202;50.866;12.750;2023-04-25T14:22:56;14.90;;;9.07;;
4375;SDS011;2202;50.866;12.750;2023-04-25T14:25:23;15.47;;;7.73;;
4375;SDS011;2202;50.866;12.750;2023-04-25T14:27:52;20.27;;;7.73;;
4375;SDS011;2202;50.866;12.750;2023-04-25T14:30:19;11.13;;;7.50;;
4375;SDS011;2202;50.866;12.750;2023-04-25T14:32:47;14.10;;;6.50;;
4375;SDS011;2202;50.866;12.750;2023-04-25T14:35:14;12.23;;;6.80;;
4375;SDS011;2202;50.866;12.750;2023-04-25T14:37:41;8.47;;;6.17;;
4375;SDS011;2202;50.866;12.750;2023-04-25T14:40:09;14.63;;;10.10;;
4375;SDS011;2202;50.866;12.750;2023-04-25T14:42:38;17.40;;;8.30;;
4375;SDS011;2202;50.866;12.750;2023-04-25T14:45:07;11.77;;;9.30;;
4375;SDS011;2202;50.866;12.750;2023-04-25T14:47:35;11.57;;;7.20;;
4375;SDS011;2202;50.866;12.750;2023-04-25T14:50:02;13.87;;;8.80;;
4375;SDS011;2202;50.866;12.750;2023-04-25T14:52:30;14.80;;;7.43;;